Etusivu
METAR-TAF:

METAR-TAF

Lentoasemat :

Kirkkoniemi, Norja

Leveyspiiri: 69-44N, Pituuspiiri: 029-54E, korkeus merenpinnasta: 9 m

Tämänhetkinen sää

Tämä raportti tehtiin 30 minuuttia sitten, kello 03.20 UTC
Tuuli 2 kn eri suunnista
Lämpötila 11°C
Kosteus 62%
Ilmanpaine 1012 hPa
Näkyvyys 10 km tai enemmän
ei pilviä alle 1500 m:ssä eikä cumulonimbus-pilviä

METAR: ENKR 250320Z VRB02KT CAVOK 11/04 Q1012 RMK WIND 731FT 10006KT

Aika: 05:50 (03:50 UTC)

Sääennuste

Tämä raportti tehtiin 1 tunti ja 50 minuuttia sitten, kello 02.00 UTC
Ennuste voimassa 25. päivästä klo 03 UTC - 25. päivään klo 12 UTC
Tuuli 5 kn etelästä
Näkyvyys 10 km tai enemmän
Hajanaisia pilviä 5000 ft:n korkeudessa

TAF: ENKR 250200Z 2503/2512 18005KT 9999 SCT050

Säähavainnot ja -ennusteet yli 4000 lentoasemalta (METAR- ja TAF-raportit).

Käytössä olevat sääasemat on merkitty karttaan keltaisilla ja punaisilla pisteillä.

Aseta hiiri pisteen päälle nähdäksesi sääaseman nimen.

Klikkaa sitten nähdäksesi säähavainnot ja -ennusteet.

Kartan vaihtaminen: klikkaa mustalla rastilla varustettuja vihreitä pisteitä, niin voit zoomata sisään; viivalla varustettua vihreää pistettä, niin voit zoomata ulos tai vihreitä nuolia, niin pääset viereisille kartoille.


METAR-TAF: